createdAt,value
2022-07-31T00:02:07.839Z,1.17
2022-07-31T00:05:32.001Z,1.40
2022-07-31T00:09:02.296Z,2.60
2022-07-31T00:12:26.046Z,1.70
2022-07-31T00:15:51.006Z,1.30
2022-07-31T00:19:14.491Z,1.47
2022-07-31T00:22:38.057Z,1.40
2022-07-31T00:26:01.558Z,1.50
2022-07-31T00:29:25.206Z,1.87
2022-07-31T00:32:52.017Z,1.70
2022-07-31T00:36:15.645Z,1.50
2022-07-31T00:39:39.191Z,1.57
2022-07-31T00:43:02.690Z,1.40
2022-07-31T00:46:26.271Z,1.40
2022-07-31T00:49:51.868Z,1.70
2022-07-31T00:53:15.454Z,1.70
2022-07-31T00:56:39.074Z,1.37
2022-07-31T01:00:02.730Z,1.60
2022-07-31T01:03:26.397Z,1.43
2022-07-31T01:06:51.277Z,1.50
2022-07-31T01:10:24.594Z,1.43
2022-07-31T01:13:55.929Z,1.37
2022-07-31T01:17:23.081Z,1.97
2022-07-31T01:20:51.677Z,1.80
2022-07-31T01:24:44.749Z,1.63
2022-07-31T01:29:07.259Z,1.20
2022-07-31T01:32:38.148Z,1.40
2022-07-31T01:36:11.375Z,1.50
2022-07-31T01:39:37.677Z,1.27
2022-07-31T01:43:08.941Z,1.43
2022-07-31T01:46:41.437Z,1.80
2022-07-31T01:50:09.484Z,1.60
2022-07-31T01:53:56.984Z,1.47
2022-07-31T01:57:23.467Z,1.30
2022-07-31T02:01:14.822Z,1.50
2022-07-31T02:04:41.316Z,1.57
2022-07-31T02:08:07.592Z,1.63
2022-07-31T02:11:33.151Z,1.57
2022-07-31T02:15:14.258Z,1.60
2022-07-31T02:18:42.859Z,2.10
2022-07-31T02:22:20.097Z,1.60
2022-07-31T02:25:49.345Z,1.60
2022-07-31T02:29:20.068Z,1.50
2022-07-31T02:32:48.637Z,1.53
2022-07-31T02:36:15.279Z,1.50
2022-07-31T02:39:41.286Z,1.40
2022-07-31T02:43:05.844Z,1.40
2022-07-31T02:46:32.307Z,1.40
2022-07-31T02:49:57.951Z,1.47
2022-07-31T02:53:22.368Z,1.60
2022-07-31T02:56:51.124Z,1.50
2022-07-31T03:00:23.705Z,1.33
2022-07-31T03:03:50.173Z,1.50
2022-07-31T03:07:13.812Z,1.40
2022-07-31T03:10:38.049Z,1.90
2022-07-31T03:14:04.660Z,1.50
2022-07-31T03:17:40.651Z,1.30
2022-07-31T03:21:06.895Z,1.57
2022-07-31T03:24:30.703Z,1.53
2022-07-31T03:27:56.470Z,1.43
2022-07-31T03:31:22.419Z,1.70
2022-07-31T03:34:45.932Z,1.33
2022-07-31T03:38:39.077Z,1.70
2022-07-31T03:41:57.281Z,1.20
2022-07-31T03:45:22.343Z,1.30
2022-07-31T03:48:51.908Z,1.33
2022-07-31T03:52:17.051Z,1.70
2022-07-31T03:55:44.182Z,1.70
2022-07-31T03:59:07.782Z,1.40
2022-07-31T04:02:32.843Z,1.47
2022-07-31T04:06:19.141Z,1.33
2022-07-31T04:09:42.838Z,1.50
2022-07-31T04:13:08.423Z,1.50
2022-07-31T04:16:31.951Z,1.50
2022-07-31T04:19:55.459Z,1.40
2022-07-31T04:23:20.376Z,1.40
2022-07-31T04:27:21.055Z,1.57
2022-07-31T04:30:44.698Z,1.40
2022-07-31T04:34:08.508Z,1.40
2022-07-31T04:37:35.337Z,1.50
2022-07-31T04:41:01.067Z,1.40
2022-07-31T04:44:25.030Z,1.50
2022-07-31T04:47:51.546Z,1.60
2022-07-31T04:51:19.647Z,1.70
2022-07-31T04:54:43.440Z,1.50
2022-07-31T04:58:10.177Z,1.50
2022-07-31T05:01:35.179Z,1.47
2022-07-31T05:04:59.161Z,1.53
2022-07-31T05:08:35.032Z,1.70
2022-07-31T05:11:58.582Z,1.43
2022-07-31T05:15:23.442Z,1.50
2022-07-31T05:18:47.911Z,1.60
2022-07-31T05:22:17.567Z,1.50
2022-07-31T05:26:06.224Z,1.53
2022-07-31T05:29:30.321Z,1.60
2022-07-31T05:32:55.189Z,1.87
2022-07-31T05:36:20.259Z,1.43
2022-07-31T05:39:43.927Z,1.77
2022-07-31T05:43:26.525Z,1.53
2022-07-31T05:47:16.808Z,1.40
2022-07-31T05:50:43.254Z,1.57
2022-07-31T05:54:07.114Z,1.53
2022-07-31T05:57:49.062Z,1.47
2022-07-31T06:01:12.745Z,1.50
2022-07-31T06:04:38.670Z,1.50
2022-07-31T06:08:03.973Z,1.30
2022-07-31T06:11:32.932Z,1.50
2022-07-31T06:14:56.440Z,1.73
2022-07-31T06:18:33.872Z,1.53
2022-07-31T06:21:57.402Z,1.60
2022-07-31T06:25:22.431Z,1.40
2022-07-31T06:28:48.762Z,1.30
2022-07-31T06:32:13.706Z,1.50
2022-07-31T06:35:37.326Z,1.77
2022-07-31T06:39:25.176Z,1.37
2022-07-31T06:43:29.935Z,1.30
2022-07-31T06:47:16.143Z,1.40
2022-07-31T06:51:29.260Z,1.40
2022-07-31T06:54:47.967Z,1.40
2022-07-31T06:58:11.611Z,1.40
2022-07-31T07:01:36.662Z,1.50
2022-07-31T07:05:05.875Z,1.27
2022-07-31T07:08:31.360Z,1.47
2022-07-31T07:11:55.494Z,1.27
2022-07-31T07:15:19.677Z,1.30
2022-07-31T07:18:45.152Z,1.40
2022-07-31T07:22:09.072Z,1.23
2022-07-31T07:25:33.248Z,1.27
2022-07-31T07:28:57.830Z,1.57
2022-07-31T07:32:21.356Z,1.40
2022-07-31T07:35:46.566Z,1.50
2022-07-31T07:39:13.682Z,1.30
2022-07-31T07:42:38.715Z,1.20
2022-07-31T07:46:02.218Z,1.60
2022-07-31T07:49:26.567Z,1.30
2022-07-31T07:53:14.594Z,1.27
2022-07-31T07:57:10.746Z,1.27
2022-07-31T08:00:54.653Z,1.20
2022-07-31T08:04:18.438Z,1.37
2022-07-31T08:07:43.901Z,1.30
2022-07-31T08:11:38.983Z,1.20
2022-07-31T08:15:09.783Z,1.40
2022-07-31T08:18:52.925Z,1.30
2022-07-31T08:22:16.678Z,1.60
2022-07-31T08:25:40.162Z,1.30
2022-07-31T08:29:07.797Z,1.40
2022-07-31T08:32:31.670Z,1.10
2022-07-31T08:36:04.769Z,1.30
2022-07-31T08:39:28.341Z,1.50
2022-07-31T08:43:07.305Z,1.50
2022-07-31T08:46:46.142Z,1.20
2022-07-31T08:50:13.876Z,1.23
2022-07-31T08:53:38.432Z,1.20
2022-07-31T08:57:12.782Z,1.40
2022-07-31T09:00:37.565Z,1.13
2022-07-31T09:04:02.727Z,1.13
2022-07-31T09:07:26.247Z,1.23
2022-07-31T09:10:50.493Z,1.10
2022-07-31T09:14:16.860Z,1.40
2022-07-31T09:17:52.527Z,1.30
2022-07-31T09:21:18.876Z,1.00
2022-07-31T09:24:42.426Z,1.20
2022-07-31T09:28:08.359Z,1.20
2022-07-31T09:31:34.490Z,1.20
2022-07-31T09:35:16.406Z,0.93
2022-07-31T09:38:43.888Z,1.00
2022-07-31T09:42:45.539Z,1.10
2022-07-31T09:46:16.368Z,1.03
2022-07-31T09:49:39.924Z,1.10
2022-07-31T09:53:03.803Z,0.83
2022-07-31T09:56:35.885Z,0.90
2022-07-31T09:59:59.685Z,0.93
2022-07-31T10:03:25.678Z,1.00
2022-07-31T10:06:51.757Z,0.90
2022-07-31T10:10:17.974Z,1.00
2022-07-31T10:14:01.873Z,1.00
2022-07-31T10:17:35.865Z,1.07
2022-07-31T10:21:18.936Z,0.90
2022-07-31T10:25:02.035Z,0.93
2022-07-31T10:28:29.572Z,0.93
2022-07-31T10:31:55.014Z,0.80
2022-07-31T10:35:20.671Z,1.10
2022-07-31T10:39:04.740Z,0.80
2022-07-31T10:42:56.195Z,0.90
2022-07-31T10:46:29.774Z,1.03
2022-07-31T10:50:26.915Z,1.00
2022-07-31T10:54:11.555Z,0.97
2022-07-31T10:58:12.718Z,1.10
2022-07-31T11:01:52.975Z,1.10
2022-07-31T11:06:01.024Z,0.93
2022-07-31T11:09:50.406Z,1.00
2022-07-31T11:13:36.783Z,1.10
2022-07-31T11:17:15.609Z,1.10
2022-07-31T11:20:48.063Z,1.40
2022-07-31T11:24:20.355Z,1.40
2022-07-31T11:27:43.886Z,1.10
2022-07-31T11:31:09.595Z,1.20
2022-07-31T11:34:44.031Z,1.00
2022-07-31T11:38:07.673Z,1.10
2022-07-31T11:41:41.059Z,1.10
2022-07-31T11:45:12.567Z,1.10
2022-07-31T11:48:45.187Z,1.10
2022-07-31T11:52:31.090Z,1.00
2022-07-31T11:55:59.041Z,1.10
2022-07-31T11:59:45.290Z,1.10
2022-07-31T12:03:10.454Z,0.97
2022-07-31T12:06:36.413Z,1.10
2022-07-31T12:10:03.441Z,0.90
2022-07-31T12:13:30.044Z,1.00
2022-07-31T12:16:55.148Z,0.90
2022-07-31T12:20:34.276Z,1.07
2022-07-31T12:23:59.213Z,1.00
2022-07-31T12:27:22.772Z,0.90
2022-07-31T12:30:47.522Z,1.10
2022-07-31T12:34:13.674Z,0.90
2022-07-31T12:37:51.104Z,0.90
2022-07-31T12:41:14.954Z,1.10
2022-07-31T12:44:48.971Z,1.20
2022-07-31T12:48:12.477Z,1.00
2022-07-31T12:51:46.092Z,0.90
2022-07-31T12:55:10.986Z,1.20
2022-07-31T12:58:34.497Z,1.03
2022-07-31T13:01:58.005Z,1.10
2022-07-31T13:05:22.371Z,0.80
2022-07-31T13:08:47.250Z,1.00
2022-07-31T13:12:11.177Z,1.07
2022-07-31T13:15:34.657Z,1.10
2022-07-31T13:18:58.156Z,1.13
2022-07-31T13:22:21.731Z,1.00
2022-07-31T13:25:46.602Z,0.83
2022-07-31T13:29:10.106Z,1.00
2022-07-31T13:32:33.844Z,1.10
2022-07-31T13:35:57.352Z,1.17
2022-07-31T13:39:20.898Z,1.10
2022-07-31T13:42:45.755Z,1.00
2022-07-31T13:46:09.340Z,1.20
2022-07-31T13:49:33.131Z,0.90
2022-07-31T13:52:57.700Z,0.90
2022-07-31T13:56:41.742Z,1.13
2022-07-31T14:00:08.755Z,1.07
2022-07-31T14:03:32.770Z,1.00
2022-07-31T14:06:58.883Z,0.93
2022-07-31T14:10:24.846Z,1.00
2022-07-31T14:13:48.349Z,1.00
2022-07-31T14:17:13.187Z,1.20
2022-07-31T14:20:37.014Z,1.10
2022-07-31T14:24:00.508Z,1.10
2022-07-31T14:27:24.042Z,1.10
2022-07-31T14:30:49.639Z,1.00
2022-07-31T14:34:14.700Z,1.00
2022-07-31T14:37:39.319Z,0.93
2022-07-31T14:41:03.712Z,1.10
2022-07-31T14:44:28.553Z,1.00
2022-07-31T14:47:55.000Z,0.97
2022-07-31T14:51:20.515Z,1.10
2022-07-31T14:54:43.990Z,1.10
2022-07-31T14:58:07.890Z,0.87
2022-07-31T15:01:31.446Z,0.80
2022-07-31T15:04:55.051Z,0.90
2022-07-31T15:08:19.897Z,0.80
2022-07-31T15:12:00.406Z,1.10
2022-07-31T15:15:24.930Z,0.83
2022-07-31T15:18:52.203Z,0.80
2022-07-31T15:22:17.491Z,1.10
2022-07-31T15:25:42.456Z,1.30
2022-07-31T15:29:06.057Z,0.87
2022-07-31T15:32:29.649Z,1.37
2022-07-31T15:35:53.155Z,0.90
2022-07-31T15:39:16.729Z,1.20
2022-07-31T15:42:43.594Z,1.10
2022-07-31T15:46:08.922Z,1.13
2022-07-31T15:49:44.036Z,1.00
2022-07-31T15:53:08.193Z,1.33
2022-07-31T15:56:31.777Z,1.10
2022-07-31T15:59:56.738Z,1.07
2022-07-31T16:03:20.410Z,0.93
2022-07-31T16:06:49.046Z,1.00
2022-07-31T16:10:18.167Z,1.00
2022-07-31T16:13:42.234Z,1.13
2022-07-31T16:17:07.684Z,1.10
2022-07-31T16:20:31.336Z,1.10
2022-07-31T16:23:54.816Z,1.10
2022-07-31T16:27:18.298Z,1.10
2022-07-31T16:30:42.330Z,1.00
2022-07-31T16:34:07.282Z,1.30
2022-07-31T16:37:50.127Z,1.10
2022-07-31T16:41:14.501Z,1.50
2022-07-31T16:44:39.674Z,1.20
2022-07-31T16:48:03.393Z,1.10
2022-07-31T16:51:28.395Z,1.30
2022-07-31T16:54:51.942Z,1.40
2022-07-31T16:58:15.457Z,1.30
2022-07-31T17:01:58.550Z,1.10
2022-07-31T17:05:22.732Z,1.00
2022-07-31T17:08:47.675Z,1.03
2022-07-31T17:12:11.642Z,1.30
2022-07-31T17:15:35.280Z,1.20
2022-07-31T17:18:59.075Z,1.20
2022-07-31T17:22:29.346Z,1.20
2022-07-31T17:25:56.322Z,1.00
2022-07-31T17:29:19.926Z,1.27
2022-07-31T17:32:43.786Z,1.60
2022-07-31T17:36:08.389Z,1.20
2022-07-31T17:39:31.936Z,1.10
2022-07-31T17:42:56.835Z,0.97
2022-07-31T17:46:28.199Z,1.00
2022-07-31T17:49:59.902Z,1.20
2022-07-31T17:53:23.454Z,1.00
2022-07-31T17:56:54.814Z,1.10
2022-07-31T18:00:20.100Z,0.97
2022-07-31T18:03:43.639Z,0.90
2022-07-31T18:07:09.027Z,1.17
2022-07-31T18:10:53.656Z,1.07
2022-07-31T18:14:18.201Z,1.40
2022-07-31T18:17:45.758Z,1.43
2022-07-31T18:21:09.345Z,1.30
2022-07-31T18:24:32.834Z,1.17
2022-07-31T18:27:57.132Z,1.10
2022-07-31T18:31:34.671Z,1.30
2022-07-31T18:35:02.367Z,1.17
2022-07-31T18:38:28.203Z,1.00
2022-07-31T18:41:52.025Z,1.07
2022-07-31T18:45:15.502Z,1.00
2022-07-31T18:48:39.387Z,1.07
2022-07-31T18:52:04.965Z,1.23
2022-07-31T18:55:28.666Z,1.20
2022-07-31T18:58:53.218Z,1.23
2022-07-31T19:02:16.827Z,1.27
2022-07-31T19:05:46.224Z,1.20
2022-07-31T19:09:11.350Z,1.00
2022-07-31T19:12:35.291Z,0.90
2022-07-31T19:15:58.846Z,1.10
2022-07-31T19:19:22.321Z,1.50
2022-07-31T19:22:46.431Z,1.40
2022-07-31T19:26:11.382Z,1.17
2022-07-31T19:29:34.880Z,1.27
2022-07-31T19:32:58.419Z,1.20
2022-07-31T19:36:21.966Z,1.07
2022-07-31T19:39:45.628Z,1.20
2022-07-31T19:43:11.619Z,1.20
2022-07-31T19:46:36.806Z,1.20
2022-07-31T19:50:00.278Z,1.40
2022-07-31T19:53:23.773Z,1.20
2022-07-31T19:56:47.301Z,1.27
2022-07-31T20:00:14.548Z,1.40
2022-07-31T20:03:38.553Z,1.20
2022-07-31T20:07:02.045Z,1.20
2022-07-31T20:10:25.629Z,1.27
2022-07-31T20:13:49.140Z,1.30
2022-07-31T20:17:14.099Z,1.27
2022-07-31T20:20:39.071Z,1.20
2022-07-31T20:24:02.864Z,1.27
2022-07-31T20:27:26.620Z,1.20
2022-07-31T20:30:50.705Z,1.20
2022-07-31T20:34:16.297Z,1.40
2022-07-31T20:37:40.607Z,1.20
2022-07-31T20:41:04.472Z,1.40
2022-07-31T20:44:28.147Z,1.43
2022-07-31T20:47:53.033Z,1.53
2022-07-31T20:51:20.439Z,1.23
2022-07-31T20:54:44.523Z,1.30
2022-07-31T20:58:07.945Z,1.27
2022-07-31T21:01:31.445Z,1.27
2022-07-31T21:04:54.992Z,1.33
2022-07-31T21:08:19.935Z,1.00
2022-07-31T21:11:43.446Z,1.20
2022-07-31T21:15:08.197Z,1.17
2022-07-31T21:18:51.723Z,1.07
2022-07-31T21:22:15.223Z,0.90
2022-07-31T21:25:42.495Z,1.07
2022-07-31T21:29:09.049Z,0.97
2022-07-31T21:32:33.607Z,1.20
2022-07-31T21:35:57.731Z,1.00
2022-07-31T21:39:25.567Z,1.23
2022-07-31T21:42:56.468Z,1.10
2022-07-31T21:46:25.304Z,0.90
2022-07-31T21:49:55.272Z,1.00
2022-07-31T21:53:21.804Z,1.00
2022-07-31T21:56:45.405Z,1.00
2022-07-31T22:00:13.935Z,1.00
2022-07-31T22:03:37.767Z,1.00
2022-07-31T22:07:18.898Z,1.00
2022-07-31T22:10:42.719Z,1.10
2022-07-31T22:14:06.435Z,1.10
2022-07-31T22:17:31.333Z,1.17
2022-07-31T22:20:55.273Z,1.07
2022-07-31T22:24:20.021Z,1.30
2022-07-31T22:27:55.407Z,1.00
2022-07-31T22:31:19.470Z,1.20
2022-07-31T22:34:44.623Z,1.33
2022-07-31T22:38:08.375Z,1.37
2022-07-31T22:41:31.979Z,1.30
2022-07-31T22:44:55.974Z,1.40
2022-07-31T22:48:21.842Z,1.10
2022-07-31T22:51:46.911Z,1.20
2022-07-31T22:55:12.018Z,1.40
2022-07-31T22:58:35.528Z,1.03
2022-07-31T23:01:59.598Z,1.30
2022-07-31T23:05:28.458Z,1.07
2022-07-31T23:09:13.306Z,1.10
2022-07-31T23:12:36.791Z,1.30
2022-07-31T23:16:00.347Z,1.27
2022-07-31T23:19:24.554Z,1.40
2022-07-31T23:22:48.035Z,1.20
2022-07-31T23:26:12.857Z,1.20
2022-07-31T23:29:41.596Z,1.40
2022-07-31T23:33:05.481Z,1.40
2022-07-31T23:36:29.866Z,1.30
2022-07-31T23:39:53.658Z,1.67
2022-07-31T23:43:21.037Z,1.20
2022-07-31T23:46:44.645Z,1.40
2022-07-31T23:50:09.041Z,1.40
2022-07-31T23:53:32.861Z,1.40
2022-07-31T23:56:56.659Z,1.40
